sensor_id;sensor_type;location;lat;lon;timestamp;P1;durP1;ratioP1;P2;durP2;ratioP2
49450;SDS011;35336;48.400;10.886;2022-11-20T00:00:09;5.03;;;3.53;;
49450;SDS011;35336;48.400;10.886;2022-11-20T00:00:25;4.30;;;3.30;;
49450;SDS011;35336;48.400;10.886;2022-11-20T00:00:40;4.25;;;3.50;;
49450;SDS011;35336;48.400;10.886;2022-11-20T00:00:56;5.57;;;3.43;;
49450;SDS011;35336;48.400;10.886;2022-11-20T00:01:12;6.27;;;3.50;;
49450;SDS011;35336;48.400;10.886;2022-11-20T00:01:29;8.90;;;3.45;;
49450;SDS011;35336;48.400;10.886;2022-11-20T00:01:45;8.37;;;3.57;;
49450;SDS011;35336;48.400;10.886;2022-11-20T00:02:00;4.53;;;3.60;;
49450;SDS011;35336;48.400;10.886;2022-11-20T00:02:15;4.07;;;3.60;;
49450;SDS011;35336;48.400;10.886;2022-11-20T00:02:31;5.40;;;3.60;;
49450;SDS011;35336;48.400;10.886;2022-11-20T00:02:46;5.77;;;3.50;;
49450;SDS011;35336;48.400;10.886;2022-11-20T00:03:01;4.95;;;3.60;;
49450;SDS011;35336;48.400;10.886;2022-11-20T00:03:16;7.03;;;3.47;;
49450;SDS011;35336;48.400;10.886;2022-11-20T00:03:32;6.40;;;3.43;;
49450;SDS011;35336;48.400;10.886;2022-11-20T00:03:48;4.30;;;3.50;;
49450;SDS011;35336;48.400;10.886;2022-11-20T00:04:04;5.10;;;3.38;;
49450;SDS011;35336;48.400;10.886;2022-11-20T00:04:19;5.43;;;3.50;;
49450;SDS011;35336;48.400;10.886;2022-11-20T00:04:34;5.00;;;3.43;;
49450;SDS011;35336;48.400;10.886;2022-11-20T00:04:49;4.40;;;3.33;;
49450;SDS011;35336;48.400;10.886;2022-11-20T00:05:05;5.50;;;3.53;;
49450;SDS011;35336;48.400;10.886;2022-11-20T00:05:20;4.82;;;3.45;;
49450;SDS011;35336;48.400;10.886;2022-11-20T00:05:36;3.83;;;3.13;;
49450;SDS011;35336;48.400;10.886;2022-11-20T00:05:51;4.05;;;3.17;;
49450;SDS011;35336;48.400;10.886;2022-11-20T00:06:08;4.47;;;3.50;;
49450;SDS011;35336;48.400;10.886;2022-11-20T00:06:26;4.13;;;3.50;;
49450;SDS011;35336;48.400;10.886;2022-11-20T00:06:42;5.30;;;3.08;;
49450;SDS011;35336;48.400;10.886;2022-11-20T00:06:58;5.60;;;3.27;;
49450;SDS011;35336;48.400;10.886;2022-11-20T00:07:13;5.17;;;3.70;;
49450;SDS011;35336;48.400;10.886;2022-11-20T00:07:28;5.25;;;3.55;;
49450;SDS011;35336;48.400;10.886;2022-11-20T00:07:43;5.00;;;3.40;;
49450;SDS011;35336;48.400;10.886;2022-11-20T00:07:59;8.03;;;3.63;;
49450;SDS011;35336;48.400;10.886;2022-11-20T00:08:14;7.73;;;3.77;;
49450;SDS011;35336;48.400;10.886;2022-11-20T00:08:29;4.80;;;3.60;;
49450;SDS011;35336;48.400;10.886;2022-11-20T00:08:45;6.63;;;3.67;;
49450;SDS011;35336;48.400;10.886;2022-11-20T00:09:01;6.53;;;3.63;;
49450;SDS011;35336;48.400;10.886;2022-11-20T00:09:16;6.00;;;3.60;;
49450;SDS011;35336;48.400;10.886;2022-11-20T00:09:33;6.63;;;3.73;;
49450;SDS011;35336;48.400;10.886;2022-11-20T00:09:48;5.70;;;3.70;;
49450;SDS011;35336;48.400;10.886;2022-11-20T00:10:04;5.47;;;3.90;;
49450;SDS011;35336;48.400;10.886;2022-11-20T00:10:20;4.95;;;3.55;;
49450;SDS011;35336;48.400;10.886;2022-11-20T00:10:41;6.10;;;3.40;;
49450;SDS011;35336;48.400;10.886;2022-11-20T00:10:56;7.88;;;3.67;;
49450;SDS011;35336;48.400;10.886;2022-11-20T00:11:21;4.97;;;3.10;;
49450;SDS011;35336;48.400;10.886;2022-11-20T00:11:38;4.00;;;2.97;;
49450;SDS011;35336;48.400;10.886;2022-11-20T00:11:54;4.13;;;3.13;;
49450;SDS011;35336;48.400;10.886;2022-11-20T00:12:09;5.73;;;3.40;;
49450;SDS011;35336;48.400;10.886;2022-11-20T00:12:25;5.27;;;3.60;;
49450;SDS011;35336;48.400;10.886;2022-11-20T00:12:40;5.63;;;3.60;;
49450;SDS011;35336;48.400;10.886;2022-11-20T00:12:57;6.03;;;3.30;;
49450;SDS011;35336;48.400;10.886;2022-11-20T00:13:13;4.82;;;3.30;;
49450;SDS011;35336;48.400;10.886;2022-11-20T00:13:28;5.45;;;3.58;;
49450;SDS011;35336;48.400;10.886;2022-11-20T00:13:44;6.27;;;3.70;;
49450;SDS011;35336;48.400;10.886;2022-11-20T00:14:00;6.20;;;3.45;;
49450;SDS011;35336;48.400;10.886;2022-11-20T00:14:16;5.50;;;3.50;;
49450;SDS011;35336;48.400;10.886;2022-11-20T00:14:32;5.40;;;3.53;;
49450;SDS011;35336;48.400;10.886;2022-11-20T00:14:47;6.50;;;3.25;;
49450;SDS011;35336;48.400;10.886;2022-11-20T00:15:02;5.73;;;3.10;;
49450;SDS011;35336;48.400;10.886;2022-11-20T00:15:18;4.10;;;3.08;;
49450;SDS011;35336;48.400;10.886;2022-11-20T00:15:34;3.70;;;3.17;;
49450;SDS011;35336;48.400;10.886;2022-11-20T00:15:56;4.13;;;3.00;;
49450;SDS011;35336;48.400;10.886;2022-11-20T00:16:12;4.32;;;2.92;;
49450;SDS011;35336;48.400;10.886;2022-11-20T00:16:30;5.65;;;2.95;;
49450;SDS011;35336;48.400;10.886;2022-11-20T00:16:47;6.60;;;3.10;;
49450;SDS011;35336;48.400;10.886;2022-11-20T00:17:02;4.23;;;3.20;;
49450;SDS011;35336;48.400;10.886;2022-11-20T00:17:18;4.32;;;3.20;;
49450;SDS011;35336;48.400;10.886;2022-11-20T00:17:33;4.20;;;3.17;;
49450;SDS011;35336;48.400;10.886;2022-11-20T00:17:48;6.37;;;3.33;;
49450;SDS011;35336;48.400;10.886;2022-11-20T00:18:04;7.57;;;3.60;;
49450;SDS011;35336;48.400;10.886;2022-11-20T00:18:19;5.00;;;3.40;;
49450;SDS011;35336;48.400;10.886;2022-11-20T00:18:34;4.00;;;3.17;;
49450;SDS011;35336;48.400;10.886;2022-11-20T00:18:50;5.20;;;3.30;;
49450;SDS011;35336;48.400;10.886;2022-11-20T00:19:06;5.32;;;3.20;;
49450;SDS011;35336;48.400;10.886;2022-11-20T00:19:22;4.20;;;3.22;;
49450;SDS011;35336;48.400;10.886;2022-11-20T00:19:37;4.23;;;3.30;;
49450;SDS011;35336;48.400;10.886;2022-11-20T00:19:52;4.00;;;3.07;;
49450;SDS011;35336;48.400;10.886;2022-11-20T00:20:08;3.75;;;3.00;;
49450;SDS011;35336;48.400;10.886;2022-11-20T00:20:23;3.87;;;3.27;;
49450;SDS011;35336;48.400;10.886;2022-11-20T00:20:39;3.75;;;3.10;;
49450;SDS011;35336;48.400;10.886;2022-11-20T00:20:59;4.63;;;3.50;;
49450;SDS011;35336;48.400;10.886;2022-11-20T00:21:35;4.72;;;3.40;;
49450;SDS011;35336;48.400;10.886;2022-11-20T00:21:51;5.57;;;3.70;;
49450;SDS011;35336;48.400;10.886;2022-11-20T00:22:06;6.87;;;3.53;;
49450;SDS011;35336;48.400;10.886;2022-11-20T00:22:21;6.73;;;3.27;;
49450;SDS011;35336;48.400;10.886;2022-11-20T00:22:37;5.20;;;3.30;;
49450;SDS011;35336;48.400;10.886;2022-11-20T00:22:52;5.43;;;3.30;;
49450;SDS011;35336;48.400;10.886;2022-11-20T00:23:07;5.83;;;3.20;;
49450;SDS011;35336;48.400;10.886;2022-11-20T00:23:22;5.07;;;3.17;;
49450;SDS011;35336;48.400;10.886;2022-11-20T00:23:39;5.28;;;3.25;;
49450;SDS011;35336;48.400;10.886;2022-11-20T00:23:55;5.78;;;3.40;;
49450;SDS011;35336;48.400;10.886;2022-11-20T00:24:11;5.35;;;3.55;;
49450;SDS011;35336;48.400;10.886;2022-11-20T00:24:26;5.95;;;3.58;;
49450;SDS011;35336;48.400;10.886;2022-11-20T00:24:42;5.37;;;3.30;;
49450;SDS011;35336;48.400;10.886;2022-11-20T00:24:57;3.87;;;3.07;;
49450;SDS011;35336;48.400;10.886;2022-11-20T00:25:12;5.18;;;3.30;;
49450;SDS011;35336;48.400;10.886;2022-11-20T00:25:28;6.03;;;3.27;;
49450;SDS011;35336;48.400;10.886;2022-11-20T00:25:43;4.43;;;2.93;;
49450;SDS011;35336;48.400;10.886;2022-11-20T00:26:05;4.55;;;2.97;;
49450;SDS011;35336;48.400;10.886;2022-11-20T00:26:23;6.80;;;3.00;;
49450;SDS011;35336;48.400;10.886;2022-11-20T00:26:39;4.43;;;2.78;;
49450;SDS011;35336;48.400;10.886;2022-11-20T00:26:54;5.13;;;3.00;;
49450;SDS011;35336;48.400;10.886;2022-11-20T00:27:09;6.20;;;3.30;;
49450;SDS011;35336;48.400;10.886;2022-11-20T00:27:25;5.10;;;3.20;;
49450;SDS011;35336;48.400;10.886;2022-11-20T00:27:40;4.77;;;3.20;;
49450;SDS011;35336;48.400;10.886;2022-11-20T00:27:55;6.87;;;3.20;;
49450;SDS011;35336;48.400;10.886;2022-11-20T00:28:11;6.33;;;3.30;;
49450;SDS011;35336;48.400;10.886;2022-11-20T00:28:26;4.97;;;3.10;;
49450;SDS011;35336;48.400;10.886;2022-11-20T00:28:42;6.57;;;3.00;;
49450;SDS011;35336;48.400;10.886;2022-11-20T00:29:00;4.82;;;3.15;;
49450;SDS011;35336;48.400;10.886;2022-11-20T00:29:15;4.35;;;3.30;;
49450;SDS011;35336;48.400;10.886;2022-11-20T00:29:31;6.97;;;3.57;;
49450;SDS011;35336;48.400;10.886;2022-11-20T00:29:46;7.00;;;3.33;;
49450;SDS011;35336;48.400;10.886;2022-11-20T00:30:02;5.20;;;3.13;;
49450;SDS011;35336;48.400;10.886;2022-11-20T00:30:18;4.55;;;3.15;;
49450;SDS011;35336;48.400;10.886;2022-11-20T00:30:33;3.83;;;3.00;;
49450;SDS011;35336;48.400;10.886;2022-11-20T00:30:49;3.87;;;3.27;;
49450;SDS011;35336;48.400;10.886;2022-11-20T00:31:08;6.47;;;3.45;;
49450;SDS011;35336;48.400;10.886;2022-11-20T00:31:29;5.50;;;3.13;;
49450;SDS011;35336;48.400;10.886;2022-11-20T00:31:45;4.30;;;3.20;;
49450;SDS011;35336;48.400;10.886;2022-11-20T00:32:00;4.47;;;3.45;;
49450;SDS011;35336;48.400;10.886;2022-11-20T00:32:15;5.33;;;3.43;;
49450;SDS011;35336;48.400;10.886;2022-11-20T00:32:30;6.10;;;3.50;;
49450;SDS011;35336;48.400;10.886;2022-11-20T00:32:46;5.45;;;3.40;;
49450;SDS011;35336;48.400;10.886;2022-11-20T00:33:01;4.80;;;3.37;;
49450;SDS011;35336;48.400;10.886;2022-11-20T00:33:16;4.33;;;3.73;;
49450;SDS011;35336;48.400;10.886;2022-11-20T00:33:32;5.67;;;3.50;;
49450;SDS011;35336;48.400;10.886;2022-11-20T00:33:47;5.55;;;3.00;;
49450;SDS011;35336;48.400;10.886;2022-11-20T00:34:03;4.67;;;3.23;;
49450;SDS011;35336;48.400;10.886;2022-11-20T00:34:18;4.22;;;3.17;;
49450;SDS011;35336;48.400;10.886;2022-11-20T00:34:33;4.70;;;3.33;;
49450;SDS011;35336;48.400;10.886;2022-11-20T00:34:49;5.63;;;3.80;;
49450;SDS011;35336;48.400;10.886;2022-11-20T00:35:04;5.00;;;3.43;;
49450;SDS011;35336;48.400;10.886;2022-11-20T00:35:19;4.27;;;3.00;;
49450;SDS011;35336;48.400;10.886;2022-11-20T00:35:35;4.40;;;2.92;;
49450;SDS011;35336;48.400;10.886;2022-11-20T00:35:50;4.53;;;3.03;;
49450;SDS011;35336;48.400;10.886;2022-11-20T00:36:09;4.67;;;3.10;;
49450;SDS011;35336;48.400;10.886;2022-11-20T00:36:33;4.90;;;3.10;;
49450;SDS011;35336;48.400;10.886;2022-11-20T00:36:49;5.40;;;3.10;;
49450;SDS011;35336;48.400;10.886;2022-11-20T00:37:04;4.67;;;2.93;;
49450;SDS011;35336;48.400;10.886;2022-11-20T00:37:19;4.27;;;3.40;;
49450;SDS011;35336;48.400;10.886;2022-11-20T00:37:34;4.47;;;3.20;;
49450;SDS011;35336;48.400;10.886;2022-11-20T00:37:50;4.78;;;3.17;;
49450;SDS011;35336;48.400;10.886;2022-11-20T00:38:05;4.97;;;3.43;;
49450;SDS011;35336;48.400;10.886;2022-11-20T00:38:20;3.47;;;3.00;;
49450;SDS011;35336;48.400;10.886;2022-11-20T00:38:36;3.20;;;2.90;;
49450;SDS011;35336;48.400;10.886;2022-11-20T00:38:52;4.15;;;2.65;;
49450;SDS011;35336;48.400;10.886;2022-11-20T00:39:09;4.50;;;2.80;;
49450;SDS011;35336;48.400;10.886;2022-11-20T00:39:24;4.70;;;3.17;;
49450;SDS011;35336;48.400;10.886;2022-11-20T00:39:39;4.37;;;3.10;;
49450;SDS011;35336;48.400;10.886;2022-11-20T00:39:55;3.70;;;2.90;;
49450;SDS011;35336;48.400;10.886;2022-11-20T00:40:10;3.53;;;2.83;;
49450;SDS011;35336;48.400;10.886;2022-11-20T00:40:26;3.67;;;2.83;;
49450;SDS011;35336;48.400;10.886;2022-11-20T00:40:41;3.90;;;2.80;;
49450;SDS011;35336;48.400;10.886;2022-11-20T00:40:57;4.17;;;2.80;;
49450;SDS011;35336;48.400;10.886;2022-11-20T00:41:14;4.97;;;3.15;;
49450;SDS011;35336;48.400;10.886;2022-11-20T00:41:30;4.90;;;3.20;;
49450;SDS011;35336;48.400;10.886;2022-11-20T00:41:46;3.93;;;3.10;;
49450;SDS011;35336;48.400;10.886;2022-11-20T00:42:01;4.90;;;3.20;;
49450;SDS011;35336;48.400;10.886;2022-11-20T00:42:16;4.82;;;3.15;;
49450;SDS011;35336;48.400;10.886;2022-11-20T00:42:32;4.33;;;3.13;;
49450;SDS011;35336;48.400;10.886;2022-11-20T00:42:47;4.33;;;3.20;;
49450;SDS011;35336;48.400;10.886;2022-11-20T00:43:02;5.30;;;3.35;;
49450;SDS011;35336;48.400;10.886;2022-11-20T00:43:18;5.63;;;3.47;;
49450;SDS011;35336;48.400;10.886;2022-11-20T00:43:33;4.00;;;3.40;;
49450;SDS011;35336;48.400;10.886;2022-11-20T00:43:49;6.35;;;3.40;;
49450;SDS011;35336;48.400;10.886;2022-11-20T00:44:06;6.35;;;3.53;;
49450;SDS011;35336;48.400;10.886;2022-11-20T00:44:21;5.57;;;3.70;;
49450;SDS011;35336;48.400;10.886;2022-11-20T00:44:37;5.17;;;3.60;;
49450;SDS011;35336;48.400;10.886;2022-11-20T00:44:52;4.63;;;3.20;;
49450;SDS011;35336;48.400;10.886;2022-11-20T00:45:08;5.23;;;3.13;;
49450;SDS011;35336;48.400;10.886;2022-11-20T00:45:23;5.07;;;3.33;;
49450;SDS011;35336;48.400;10.886;2022-11-20T00:45:38;5.78;;;3.38;;
49450;SDS011;35336;48.400;10.886;2022-11-20T00:45:57;5.53;;;3.27;;
49450;SDS011;35336;48.400;10.886;2022-11-20T00:46:17;4.25;;;3.22;;
49450;SDS011;35336;48.400;10.886;2022-11-20T00:46:34;5.07;;;3.28;;
49450;SDS011;35336;48.400;10.886;2022-11-20T00:46:49;5.57;;;3.50;;
49450;SDS011;35336;48.400;10.886;2022-11-20T00:47:04;5.90;;;3.37;;
49450;SDS011;35336;48.400;10.886;2022-11-20T00:47:20;5.53;;;3.10;;
49450;SDS011;35336;48.400;10.886;2022-11-20T00:47:35;4.57;;;3.45;;
49450;SDS011;35336;48.400;10.886;2022-11-20T00:47:50;3.70;;;3.30;;
49450;SDS011;35336;48.400;10.886;2022-11-20T00:48:06;3.27;;;2.97;;
49450;SDS011;35336;48.400;10.886;2022-11-20T00:48:21;3.30;;;3.00;;
49450;SDS011;35336;48.400;10.886;2022-11-20T00:48:36;4.10;;;2.97;;
49450;SDS011;35336;48.400;10.886;2022-11-20T00:48:52;4.27;;;2.90;;
49450;SDS011;35336;48.400;10.886;2022-11-20T00:49:07;3.60;;;3.08;;
49450;SDS011;35336;48.400;10.886;2022-11-20T00:49:22;4.20;;;3.23;;
49450;SDS011;35336;48.400;10.886;2022-11-20T00:49:38;6.07;;;3.40;;
49450;SDS011;35336;48.400;10.886;2022-11-20T00:49:53;7.32;;;3.40;;
49450;SDS011;35336;48.400;10.886;2022-11-20T00:50:08;7.07;;;3.30;;
49450;SDS011;35336;48.400;10.886;2022-11-20T00:50:24;5.40;;;3.47;;
49450;SDS011;35336;48.400;10.886;2022-11-20T00:50:39;5.85;;;3.47;;
49450;SDS011;35336;48.400;10.886;2022-11-20T00:50:56;6.22;;;3.58;;
49450;SDS011;35336;48.400;10.886;2022-11-20T00:51:13;4.13;;;3.70;;
49450;SDS011;35336;48.400;10.886;2022-11-20T00:51:30;4.13;;;3.72;;
49450;SDS011;35336;48.400;10.886;2022-11-20T00:51:45;4.07;;;3.50;;
49450;SDS011;35336;48.400;10.886;2022-11-20T00:52:01;6.37;;;3.80;;
49450;SDS011;35336;48.400;10.886;2022-11-20T00:52:16;6.65;;;3.75;;
49450;SDS011;35336;48.400;10.886;2022-11-20T00:52:31;5.37;;;3.60;;
49450;SDS011;35336;48.400;10.886;2022-11-20T00:52:47;5.03;;;3.60;;
49450;SDS011;35336;48.400;10.886;2022-11-20T00:53:02;5.05;;;3.47;;
49450;SDS011;35336;48.400;10.886;2022-11-20T00:53:17;6.33;;;3.50;;
49450;SDS011;35336;48.400;10.886;2022-11-20T00:53:33;5.10;;;3.50;;
49450;SDS011;35336;48.400;10.886;2022-11-20T00:53:48;4.07;;;3.40;;
49450;SDS011;35336;48.400;10.886;2022-11-20T00:54:04;6.03;;;3.40;;
49450;SDS011;35336;48.400;10.886;2022-11-20T00:54:19;5.88;;;3.20;;
49450;SDS011;35336;48.400;10.886;2022-11-20T00:54:34;5.27;;;3.20;;
49450;SDS011;35336;48.400;10.886;2022-11-20T00:54:50;5.60;;;3.30;;
49450;SDS011;35336;48.400;10.886;2022-11-20T00:55:05;4.43;;;3.40;;
49450;SDS011;35336;48.400;10.886;2022-11-20T00:55:21;4.72;;;3.40;;
49450;SDS011;35336;48.400;10.886;2022-11-20T00:55:36;4.27;;;3.20;;
49450;SDS011;35336;48.400;10.886;2022-11-20T00:55:52;4.60;;;3.35;;
49450;SDS011;35336;48.400;10.886;2022-11-20T00:56:09;5.70;;;3.63;;
49450;SDS011;35336;48.400;10.886;2022-11-20T00:56:26;6.43;;;4.00;;
49450;SDS011;35336;48.400;10.886;2022-11-20T00:56:42;6.05;;;4.13;;
49450;SDS011;35336;48.400;10.886;2022-11-20T00:56:57;4.47;;;3.83;;
49450;SDS011;35336;48.400;10.886;2022-11-20T00:57:12;6.50;;;3.97;;
49450;SDS011;35336;48.400;10.886;2022-11-20T00:57:28;6.95;;;3.70;;
49450;SDS011;35336;48.400;10.886;2022-11-20T00:57:43;6.10;;;3.67;;
49450;SDS011;35336;48.400;10.886;2022-11-20T00:57:58;5.55;;;3.60;;
49450;SDS011;35336;48.400;10.886;2022-11-20T00:58:14;4.70;;;3.47;;
49450;SDS011;35336;48.400;10.886;2022-11-20T00:58:33;4.73;;;3.50;;
49450;SDS011;35336;48.400;10.886;2022-11-20T00:58:50;3.63;;;3.22;;
49450;SDS011;35336;48.400;10.886;2022-11-20T00:59:05;3.90;;;3.37;;
49450;SDS011;35336;48.400;10.886;2022-11-20T00:59:20;5.30;;;3.53;;
49450;SDS011;35336;48.400;10.886;2022-11-20T00:59:36;5.37;;;3.63;;
49450;SDS011;35336;48.400;10.886;2022-11-20T00:59:51;5.10;;;3.40;;
49450;SDS011;35336;48.400;10.886;2022-11-20T01:00:06;5.97;;;3.30;;
49450;SDS011;35336;48.400;10.886;2022-11-20T01:00:22;4.63;;;3.33;;
49450;SDS011;35336;48.400;10.886;2022-11-20T01:00:37;4.95;;;3.40;;
49450;SDS011;35336;48.400;10.886;2022-11-20T01:00:53;7.93;;;3.70;;
49450;SDS011;35336;48.400;10.886;2022-11-20T01:01:09;6.93;;;3.53;;
49450;SDS011;35336;48.400;10.886;2022-11-20T01:01:26;4.53;;;3.20;;
49450;SDS011;35336;48.400;10.886;2022-11-20T01:01:41;4.80;;;3.08;;
49450;SDS011;35336;48.400;10.886;2022-11-20T01:01:57;5.90;;;3.50;;
49450;SDS011;35336;48.400;10.886;2022-11-20T01:02:12;5.97;;;3.83;;
49450;SDS011;35336;48.400;10.886;2022-11-20T01:02:27;4.57;;;3.42;;
49450;SDS011;35336;48.400;10.886;2022-11-20T01:02:42;4.83;;;3.27;;
49450;SDS011;35336;48.400;10.886;2022-11-20T01:02:58;5.70;;;3.50;;
49450;SDS011;35336;48.400;10.886;2022-11-20T01:03:13;4.57;;;3.57;;
49450;SDS011;35336;48.400;10.886;2022-11-20T01:03:30;4.50;;;3.83;;
49450;SDS011;35336;48.400;10.886;2022-11-20T01:03:50;6.38;;;3.47;;
49450;SDS011;35336;48.400;10.886;2022-11-20T01:04:07;6.55;;;3.83;;
49450;SDS011;35336;48.400;10.886;2022-11-20T01:04:22;6.07;;;3.73;;
49450;SDS011;35336;48.400;10.886;2022-11-20T01:04:37;5.30;;;3.33;;
49450;SDS011;35336;48.400;10.886;2022-11-20T01:04:53;4.83;;;3.50;;
49450;SDS011;35336;48.400;10.886;2022-11-20T01:05:08;5.37;;;3.43;;
49450;SDS011;35336;48.400;10.886;2022-11-20T01:05:23;5.57;;;3.53;;
49450;SDS011;35336;48.400;10.886;2022-11-20T01:05:38;6.07;;;3.53;;
49450;SDS011;35336;48.400;10.886;2022-11-20T01:05:54;4.67;;;3.20;;
49450;SDS011;35336;48.400;10.886;2022-11-20T01:06:11;4.30;;;3.20;;
49450;SDS011;35336;48.400;10.886;2022-11-20T01:06:32;5.15;;;3.47;;
49450;SDS011;35336;48.400;10.886;2022-11-20T01:06:49;5.30;;;3.72;;
49450;SDS011;35336;48.400;10.886;2022-11-20T01:07:04;5.50;;;3.53;;
49450;SDS011;35336;48.400;10.886;2022-11-20T01:07:19;4.70;;;3.33;;
49450;SDS011;35336;48.400;10.886;2022-11-20T01:07:35;5.33;;;3.53;;
49450;SDS011;35336;48.400;10.886;2022-11-20T01:07:50;7.07;;;3.90;;
49450;SDS011;35336;48.400;10.886;2022-11-20T01:08:05;5.97;;;3.70;;
49450;SDS011;35336;48.400;10.886;2022-11-20T01:08:20;5.10;;;3.43;;
49450;SDS011;35336;48.400;10.886;2022-11-20T01:08:36;6.37;;;3.40;;
49450;SDS011;35336;48.400;10.886;2022-11-20T01:08:53;6.80;;;3.53;;
49450;SDS011;35336;48.400;10.886;2022-11-20T01:09:11;4.47;;;3.30;;
49450;SDS011;35336;48.400;10.886;2022-11-20T01:09:28;4.50;;;3.13;;
49450;SDS011;35336;48.400;10.886;2022-11-20T01:09:44;6.20;;;3.40;;
49450;SDS011;35336;48.400;10.886;2022-11-20T01:09:59;6.10;;;3.47;;
49450;SDS011;35336;48.400;10.886;2022-11-20T01:10:14;4.43;;;3.10;;
49450;SDS011;35336;48.400;10.886;2022-11-20T01:10:30;3.97;;;3.10;;
49450;SDS011;35336;48.400;10.886;2022-11-20T01:10:45;4.10;;;3.53;;
49450;SDS011;35336;48.400;10.886;2022-11-20T01:11:01;4.10;;;3.70;;
49450;SDS011;35336;48.400;10.886;2022-11-20T01:11:23;5.13;;;3.50;;
49450;SDS011;35336;48.400;10.886;2022-11-20T01:11:41;4.97;;;3.63;;
49450;SDS011;35336;48.400;10.886;2022-11-20T01:11:58;5.65;;;3.55;;
49450;SDS011;35336;48.400;10.886;2022-11-20T01:12:13;5.43;;;3.63;;
49450;SDS011;35336;48.400;10.886;2022-11-20T01:12:28;4.33;;;3.43;;
49450;SDS011;35336;48.400;10.886;2022-11-20T01:12:44;4.38;;;3.53;;
49450;SDS011;35336;48.400;10.886;2022-11-20T01:12:59;4.93;;;3.43;;
49450;SDS011;35336;48.400;10.886;2022-11-20T01:13:14;5.87;;;3.60;;
49450;SDS011;35336;48.400;10.886;2022-11-20T01:13:30;5.57;;;3.90;;
49450;SDS011;35336;48.400;10.886;2022-11-20T01:13:46;5.68;;;3.90;;
49450;SDS011;35336;48.400;10.886;2022-11-20T01:14:05;6.47;;;4.13;;
49450;SDS011;35336;48.400;10.886;2022-11-20T01:14:21;5.82;;;3.88;;
49450;SDS011;35336;48.400;10.886;2022-11-20T01:14:37;5.60;;;3.58;;
49450;SDS011;35336;48.400;10.886;2022-11-20T01:14:52;5.43;;;3.53;;
49450;SDS011;35336;48.400;10.886;2022-11-20T01:15:08;4.97;;;3.70;;
49450;SDS011;35336;48.400;10.886;2022-11-20T01:15:23;4.93;;;3.70;;
49450;SDS011;35336;48.400;10.886;2022-11-20T01:15:38;4.80;;;3.83;;
49450;SDS011;35336;48.400;10.886;2022-11-20T01:15:54;6.22;;;4.22;;
49450;SDS011;35336;48.400;10.886;2022-11-20T01:16:10;5.33;;;3.90;;
49450;SDS011;35336;48.400;10.886;2022-11-20T01:16:29;4.80;;;3.42;;
49450;SDS011;35336;48.400;10.886;2022-11-20T01:16:51;4.93;;;3.67;;
49450;SDS011;35336;48.400;10.886;2022-11-20T01:17:06;5.35;;;3.60;;
49450;SDS011;35336;48.400;10.886;2022-11-20T01:17:22;5.10;;;3.70;;
49450;SDS011;35336;48.400;10.886;2022-11-20T01:17:37;4.00;;;3.47;;
49450;SDS011;35336;48.400;10.886;2022-11-20T01:17:52;3.97;;;3.40;;
49450;SDS011;35336;48.400;10.886;2022-11-20T01:18:08;5.07;;;3.60;;
49450;SDS011;35336;48.400;10.886;2022-11-20T01:18:23;4.83;;;3.70;;
49450;SDS011;35336;48.400;10.886;2022-11-20T01:18:39;5.60;;;3.58;;
49450;SDS011;35336;48.400;10.886;2022-11-20T01:18:57;6.30;;;3.50;;
49450;SDS011;35336;48.400;10.886;2022-11-20T01:19:15;5.10;;;3.53;;
49450;SDS011;35336;48.400;10.886;2022-11-20T01:19:32;5.43;;;3.50;;
49450;SDS011;35336;48.400;10.886;2022-11-20T01:19:48;4.35;;;3.10;;
49450;SDS011;35336;48.400;10.886;2022-11-20T01:20:04;3.65;;;3.08;;
49450;SDS011;35336;48.400;10.886;2022-11-20T01:20:20;3.80;;;3.10;;
49450;SDS011;35336;48.400;10.886;2022-11-20T01:20:35;3.70;;;3.23;;
49450;SDS011;35336;48.400;10.886;2022-11-20T01:20:51;4.65;;;3.15;;
49450;SDS011;35336;48.400;10.886;2022-11-20T01:21:08;4.67;;;3.07;;
49450;SDS011;35336;48.400;10.886;2022-11-20T01:21:26;4.25;;;3.40;;
49450;SDS011;35336;48.400;10.886;2022-11-20T01:21:50;3.80;;;3.40;;
49450;SDS011;35336;48.400;10.886;2022-11-20T01:22:07;5.38;;;3.50;;
49450;SDS011;35336;48.400;10.886;2022-11-20T01:22:22;5.40;;;3.80;;
49450;SDS011;35336;48.400;10.886;2022-11-20T01:22:37;5.15;;;3.67;;
49450;SDS011;35336;48.400;10.886;2022-11-20T01:22:53;4.67;;;3.50;;
49450;SDS011;35336;48.400;10.886;2022-11-20T01:23:08;5.40;;;3.80;;
49450;SDS011;35336;48.400;10.886;2022-11-20T01:23:23;6.78;;;3.92;;
49450;SDS011;35336;48.400;10.886;2022-11-20T01:23:40;6.00;;;3.63;;
49450;SDS011;35336;48.400;10.886;2022-11-20T01:23:56;4.55;;;3.45;;
49450;SDS011;35336;48.400;10.886;2022-11-20T01:24:13;5.50;;;3.75;;
49450;SDS011;35336;48.400;10.886;2022-11-20T01:24:29;5.70;;;3.85;;
49450;SDS011;35336;48.400;10.886;2022-11-20T01:24:45;5.60;;;3.47;;
49450;SDS011;35336;48.400;10.886;2022-11-20T01:25:00;5.53;;;3.15;;
49450;SDS011;35336;48.400;10.886;2022-11-20T01:25:15;4.50;;;3.43;;
49450;SDS011;35336;48.400;10.886;2022-11-20T01:25:31;4.80;;;3.80;;
49450;SDS011;35336;48.400;10.886;2022-11-20T01:25:46;4.23;;;3.60;;
49450;SDS011;35336;48.400;10.886;2022-11-20T01:26:02;5.35;;;3.60;;
49450;SDS011;35336;48.400;10.886;2022-11-20T01:26:21;6.30;;;3.70;;
49450;SDS011;35336;48.400;10.886;2022-11-20T01:26:38;5.97;;;3.60;;
49450;SDS011;35336;48.400;10.886;2022-11-20T01:26:54;5.47;;;3.78;;
49450;SDS011;35336;48.400;10.886;2022-11-20T01:27:10;4.80;;;3.60;;
49450;SDS011;35336;48.400;10.886;2022-11-20T01:27:25;4.17;;;3.53;;
49450;SDS011;35336;48.400;10.886;2022-11-20T01:27:40;5.55;;;3.80;;
49450;SDS011;35336;48.400;10.886;2022-11-20T01:27:55;6.47;;;3.80;;
49450;SDS011;35336;48.400;10.886;2022-11-20T01:28:11;5.07;;;3.50;;
49450;SDS011;35336;48.400;10.886;2022-11-20T01:28:26;4.25;;;3.50;;
49450;SDS011;35336;48.400;10.886;2022-11-20T01:28:42;5.70;;;3.67;;
49450;SDS011;35336;48.400;10.886;2022-11-20T01:28:58;5.72;;;3.40;;
49450;SDS011;35336;48.400;10.886;2022-11-20T01:29:24;5.15;;;3.58;;
49450;SDS011;35336;48.400;10.886;2022-11-20T01:29:39;4.68;;;3.78;;
49450;SDS011;35336;48.400;10.886;2022-11-20T01:29:55;4.32;;;3.58;;
49450;SDS011;35336;48.400;10.886;2022-11-20T01:30:10;5.00;;;3.50;;
49450;SDS011;35336;48.400;10.886;2022-11-20T01:30:26;4.38;;;3.35;;
49450;SDS011;35336;48.400;10.886;2022-11-20T01:30:41;4.23;;;3.50;;
49450;SDS011;35336;48.400;10.886;2022-11-20T01:30:57;4.53;;;3.53;;
49450;SDS011;35336;48.400;10.886;2022-11-20T01:31:34;6.03;;;3.28;;
49450;SDS011;35336;48.400;10.886;2022-11-20T01:31:51;6.32;;;3.65;;
49450;SDS011;35336;48.400;10.886;2022-11-20T01:32:07;5.18;;;3.60;;
49450;SDS011;35336;48.400;10.886;2022-11-20T01:32:22;4.87;;;3.23;;
49450;SDS011;35336;48.400;10.886;2022-11-20T01:32:37;5.57;;;3.43;;
49450;SDS011;35336;48.400;10.886;2022-11-20T01:32:54;5.53;;;3.47;;
49450;SDS011;35336;48.400;10.886;2022-11-20T01:33:10;4.97;;;3.35;;
49450;SDS011;35336;48.400;10.886;2022-11-20T01:33:26;5.53;;;3.53;;
49450;SDS011;35336;48.400;10.886;2022-11-20T01:33:42;5.13;;;3.65;;
49450;SDS011;35336;48.400;10.886;2022-11-20T01:33:59;5.05;;;3.58;;
49450;SDS011;35336;48.400;10.886;2022-11-20T01:34:17;4.82;;;3.38;;
49450;SDS011;35336;48.400;10.886;2022-11-20T01:34:33;4.65;;;3.38;;
49450;SDS011;35336;48.400;10.886;2022-11-20T01:34:49;4.77;;;3.60;;
49450;SDS011;35336;48.400;10.886;2022-11-20T01:35:04;5.50;;;3.50;;
49450;SDS011;35336;48.400;10.886;2022-11-20T01:35:20;4.93;;;3.03;;
49450;SDS011;35336;48.400;10.886;2022-11-20T01:35:35;5.27;;;3.27;;